sensor_id;sensor_type;location;lat;lon;timestamp;pressure;altitude;pressure_sealevel;temperature;humidity
22257;BME280;11297;42.686;23.374;2023-03-20T00:00:37;95303.53;;;11.10;47.94
22257;BME280;11297;42.686;23.374;2023-03-20T00:03:03;95325.28;;;11.14;47.76
22257;BME280;11297;42.686;23.374;2023-03-20T00:05:30;95315.59;;;11.06;47.95
22257;BME280;11297;42.686;23.374;2023-03-20T00:07:55;95317.59;;;11.09;47.80
22257;BME280;11297;42.686;23.374;2023-03-20T00:10:26;95298.94;;;11.07;48.11
22257;BME280;11297;42.686;23.374;2023-03-20T00:12:55;95296.63;;;11.06;47.80
22257;BME280;11297;42.686;23.374;2023-03-20T00:15:34;95306.91;;;11.11;47.92
22257;BME280;11297;42.686;23.374;2023-03-20T00:18:00;95310.47;;;11.15;48.01
22257;BME280;11297;42.686;23.374;2023-03-20T00:20:26;95297.84;;;11.08;47.65
22257;BME280;11297;42.686;23.374;2023-03-20T00:22:52;95300.94;;;11.10;47.71
22257;BME280;11297;42.686;23.374;2023-03-20T00:25:21;95293.16;;;11.10;48.10
22257;BME280;11297;42.686;23.374;2023-03-20T00:27:47;95305.25;;;11.15;47.92
22257;BME280;11297;42.686;23.374;2023-03-20T00:32:41;95300.66;;;11.12;47.82
22257;BME280;11297;42.686;23.374;2023-03-20T00:35:21;95291.88;;;11.08;47.43
22257;BME280;11297;42.686;23.374;2023-03-20T00:37:47;95294.50;;;11.08;47.91
22257;BME280;11297;42.686;23.374;2023-03-20T00:40:13;95295.84;;;11.05;48.25
22257;BME280;11297;42.686;23.374;2023-03-20T00:42:39;95301.16;;;11.00;47.87
22257;BME280;11297;42.686;23.374;2023-03-20T00:45:07;95289.03;;;10.96;48.22
22257;BME280;11297;42.686;23.374;2023-03-20T00:47:36;95287.50;;;10.95;48.50
22257;BME280;11297;42.686;23.374;2023-03-20T00:50:34;95297.84;;;10.87;48.10
22257;BME280;11297;42.686;23.374;2023-03-20T00:52:59;95288.63;;;10.81;48.56
22257;BME280;11297;42.686;23.374;2023-03-20T00:55:27;95293.91;;;10.76;48.00
22257;BME280;11297;42.686;23.374;2023-03-20T00:57:58;95288.66;;;10.67;48.64
22257;BME280;11297;42.686;23.374;2023-03-20T01:00:45;95291.56;;;10.66;49.08
22257;BME280;11297;42.686;23.374;2023-03-20T01:03:18;95295.19;;;10.65;49.04
22257;BME280;11297;42.686;23.374;2023-03-20T01:05:45;95279.91;;;10.63;49.21
22257;BME280;11297;42.686;23.374;2023-03-20T01:08:18;95276.63;;;10.58;49.44
22257;BME280;11297;42.686;23.374;2023-03-20T01:10:45;95274.63;;;10.55;49.28
22257;BME280;11297;42.686;23.374;2023-03-20T01:13:23;95275.19;;;10.52;49.23
22257;BME280;11297;42.686;23.374;2023-03-20T01:15:50;95266.94;;;10.50;48.85
22257;BME280;11297;42.686;23.374;2023-03-20T01:18:18;95270.78;;;10.52;49.19
22257;BME280;11297;42.686;23.374;2023-03-20T01:20:43;95264.06;;;10.51;49.21
22257;BME280;11297;42.686;23.374;2023-03-20T01:23:10;95255.78;;;10.49;48.81
22257;BME280;11297;42.686;23.374;2023-03-20T01:25:36;95267.31;;;10.57;48.80
22257;BME280;11297;42.686;23.374;2023-03-20T01:28:03;95264.13;;;10.60;48.69
22257;BME280;11297;42.686;23.374;2023-03-20T01:30:36;95254.81;;;10.59;48.24
22257;BME280;11297;42.686;23.374;2023-03-20T01:33:08;95263.72;;;10.66;47.93
22257;BME280;11297;42.686;23.374;2023-03-20T01:35:36;95268.03;;;10.71;48.52
22257;BME280;11297;42.686;23.374;2023-03-20T01:38:01;95276.59;;;10.71;48.79
22257;BME280;11297;42.686;23.374;2023-03-20T01:40:39;95266.50;;;10.70;48.97
22257;BME280;11297;42.686;23.374;2023-03-20T01:43:15;95273.66;;;10.64;48.92
22257;BME280;11297;42.686;23.374;2023-03-20T01:45:48;95260.69;;;10.51;48.94
22257;BME280;11297;42.686;23.374;2023-03-20T01:48:17;95272.03;;;10.55;48.90
22257;BME280;11297;42.686;23.374;2023-03-20T01:50:43;95271.66;;;10.48;49.06
22257;BME280;11297;42.686;23.374;2023-03-20T01:53:22;95279.94;;;10.50;48.91
22257;BME280;11297;42.686;23.374;2023-03-20T01:55:50;95275.72;;;10.41;49.44
22257;BME280;11297;42.686;23.374;2023-03-20T01:58:21;95266.97;;;10.37;49.24
22257;BME280;11297;42.686;23.374;2023-03-20T02:00:49;95281.69;;;10.41;49.43
22257;BME280;11297;42.686;23.374;2023-03-20T02:03:15;95285.03;;;10.42;49.81
22257;BME280;11297;42.686;23.374;2023-03-20T02:05:42;95250.81;;;10.26;49.81
22257;BME280;11297;42.686;23.374;2023-03-20T02:08:22;95276.88;;;10.35;49.69
22257;BME280;11297;42.686;23.374;2023-03-20T02:10:50;95258.63;;;10.26;49.41
22257;BME280;11297;42.686;23.374;2023-03-20T02:13:16;95264.47;;;10.32;49.64
22257;BME280;11297;42.686;23.374;2023-03-20T02:18:25;95269.00;;;10.26;49.73
22257;BME280;11297;42.686;23.374;2023-03-20T02:35:16;95280.31;;;9.77;50.60
22257;BME280;11297;42.686;23.374;2023-03-20T02:38:06;95275.31;;;9.67;51.61
22257;BME280;11297;42.686;23.374;2023-03-20T02:41:13;95277.31;;;9.56;51.29
22257;BME280;11297;42.686;23.374;2023-03-20T02:44:03;95271.81;;;9.45;51.94
22257;BME280;11297;42.686;23.374;2023-03-20T02:46:49;95267.94;;;9.29;52.42
22257;BME280;11297;42.686;23.374;2023-03-20T02:52:04;95263.16;;;9.04;53.58
22257;BME280;11297;42.686;23.374;2023-03-20T02:54:52;95262.47;;;8.99;52.99
22257;BME280;11297;42.686;23.374;2023-03-20T02:57:35;95244.41;;;8.94;52.80
22257;BME280;11297;42.686;23.374;2023-03-20T03:00:12;95253.56;;;9.04;52.56
22257;BME280;11297;42.686;23.374;2023-03-20T03:02:47;95255.09;;;9.05;52.77
22257;BME280;11297;42.686;23.374;2023-03-20T03:05:20;95252.19;;;8.94;52.75
22257;BME280;11297;42.686;23.374;2023-03-20T03:07:49;95258.22;;;8.89;53.15
22257;BME280;11297;42.686;23.374;2023-03-20T03:10:18;95258.22;;;8.89;53.66
22257;BME280;11297;42.686;23.374;2023-03-20T03:12:48;95258.22;;;8.89;53.43
22257;BME280;11297;42.686;23.374;2023-03-20T03:15:20;95267.91;;;8.97;53.92
22257;BME280;11297;42.686;23.374;2023-03-20T03:17:48;95250.34;;;8.94;53.29
22257;BME280;11297;42.686;23.374;2023-03-20T03:20:21;95249.22;;;9.00;53.07
22257;BME280;11297;42.686;23.374;2023-03-20T03:22:48;95259.16;;;9.11;53.58
22257;BME280;11297;42.686;23.374;2023-03-20T03:25:14;95244.16;;;9.08;53.69
22257;BME280;11297;42.686;23.374;2023-03-20T03:27:43;95248.41;;;9.18;52.87
22257;BME280;11297;42.686;23.374;2023-03-20T03:30:27;95262.81;;;9.24;52.82
22257;BME280;11297;42.686;23.374;2023-03-20T03:33:11;95267.72;;;9.25;53.05
22257;BME280;11297;42.686;23.374;2023-03-20T03:35:39;95264.09;;;9.26;53.62
22257;BME280;11297;42.686;23.374;2023-03-20T03:38:33;95258.91;;;9.26;53.36
22257;BME280;11297;42.686;23.374;2023-03-20T03:46:39;95265.31;;;9.15;53.01
22257;BME280;11297;42.686;23.374;2023-03-20T03:49:09;95265.75;;;9.04;52.81
22257;BME280;11297;42.686;23.374;2023-03-20T03:51:39;95252.09;;;8.99;52.89
22257;BME280;11297;42.686;23.374;2023-03-20T03:54:10;95266.31;;;9.01;53.81
22257;BME280;11297;42.686;23.374;2023-03-20T03:56:40;95249.72;;;8.84;53.55
22257;BME280;11297;42.686;23.374;2023-03-20T03:59:17;95254.78;;;8.94;53.86
22257;BME280;11297;42.686;23.374;2023-03-20T04:01:45;95247.66;;;8.86;53.49
22257;BME280;11297;42.686;23.374;2023-03-20T04:04:13;95260.66;;;8.99;53.27
22257;BME280;11297;42.686;23.374;2023-03-20T04:06:39;95243.66;;;8.93;52.81
22257;BME280;11297;42.686;23.374;2023-03-20T04:09:06;95252.78;;;9.04;52.70
22257;BME280;11297;42.686;23.374;2023-03-20T04:11:32;95245.88;;;9.00;52.39
22257;BME280;11297;42.686;23.374;2023-03-20T04:14:00;95255.38;;;9.04;52.36
22257;BME280;11297;42.686;23.374;2023-03-20T04:16:25;95242.53;;;8.99;52.71
22257;BME280;11297;42.686;23.374;2023-03-20T04:18:51;95231.88;;;9.01;52.19
22257;BME280;11297;42.686;23.374;2023-03-20T04:21:17;95251.84;;;9.13;52.00
22257;BME280;11297;42.686;23.374;2023-03-20T04:23:43;95225.56;;;9.06;52.61
22257;BME280;11297;42.686;23.374;2023-03-20T04:26:08;95240.91;;;9.16;52.08
22257;BME280;11297;42.686;23.374;2023-03-20T04:28:34;95245.81;;;9.18;52.04
22257;BME280;11297;42.686;23.374;2023-03-20T04:31:00;95242.00;;;9.15;51.70
22257;BME280;11297;42.686;23.374;2023-03-20T04:33:27;95244.31;;;9.17;52.08
22257;BME280;11297;42.686;23.374;2023-03-20T04:35:53;95252.56;;;9.19;52.22
22257;BME280;11297;42.686;23.374;2023-03-20T04:38:19;95252.38;;;9.15;52.22
22257;BME280;11297;42.686;23.374;2023-03-20T04:40:45;95250.81;;;9.14;52.02
22257;BME280;11297;42.686;23.374;2023-03-20T04:43:12;95257.13;;;9.08;51.76
22257;BME280;11297;42.686;23.374;2023-03-20T04:45:38;95248.84;;;8.75;51.68
22257;BME280;11297;42.686;23.374;2023-03-20T04:48:04;95250.81;;;8.46;52.30
22257;BME280;11297;42.686;23.374;2023-03-20T04:50:30;95262.75;;;8.42;52.35
22257;BME280;11297;42.686;23.374;2023-03-20T04:52:56;95266.13;;;8.61;52.87
22257;BME280;11297;42.686;23.374;2023-03-20T04:55:21;95264.53;;;8.65;52.68
22257;BME280;11297;42.686;23.374;2023-03-20T04:57:47;95269.06;;;8.73;51.97
22257;BME280;11297;42.686;23.374;2023-03-20T05:00:13;95272.09;;;8.80;52.36
22257;BME280;11297;42.686;23.374;2023-03-20T05:02:38;95276.75;;;8.78;52.86
22257;BME280;11297;42.686;23.374;2023-03-20T05:05:04;95271.28;;;8.79;53.21
22257;BME280;11297;42.686;23.374;2023-03-20T05:07:30;95272.13;;;8.75;55.75
22257;BME280;11297;42.686;23.374;2023-03-20T05:09:55;95276.75;;;8.78;54.02
22257;BME280;11297;42.686;23.374;2023-03-20T05:12:21;95276.41;;;8.84;53.14
22257;BME280;11297;42.686;23.374;2023-03-20T05:14:47;95274.72;;;8.75;53.64
22257;BME280;11297;42.686;23.374;2023-03-20T05:17:12;95285.94;;;8.89;53.27
22257;BME280;11297;42.686;23.374;2023-03-20T05:19:37;95276.88;;;9.04;57.79
22257;BME280;11297;42.686;23.374;2023-03-20T05:22:03;95273.72;;;9.07;53.18
22257;BME280;11297;42.686;23.374;2023-03-20T05:24:29;95282.88;;;9.18;52.49
22257;BME280;11297;42.686;23.374;2023-03-20T05:26:55;95248.31;;;9.09;61.31
22257;BME280;11297;42.686;23.374;2023-03-20T05:29:21;95291.09;;;9.39;54.56
22257;BME280;11297;42.686;23.374;2023-03-20T05:31:47;95288.88;;;9.32;52.44
22257;BME280;11297;42.686;23.374;2023-03-20T05:34:12;95290.16;;;9.16;52.83
22257;BME280;11297;42.686;23.374;2023-03-20T05:36:37;95293.16;;;9.23;52.95
22257;BME280;11297;42.686;23.374;2023-03-20T05:39:03;95300.28;;;9.31;52.41
22257;BME280;11297;42.686;23.374;2023-03-20T05:41:28;95301.59;;;9.15;53.17
22257;BME280;11297;42.686;23.374;2023-03-20T05:43:54;95296.09;;;9.35;52.98
22257;BME280;11297;42.686;23.374;2023-03-20T05:46:19;95304.59;;;9.54;52.14
22257;BME280;11297;42.686;23.374;2023-03-20T05:48:46;95304.91;;;9.66;51.95
22257;BME280;11297;42.686;23.374;2023-03-20T05:51:12;95254.91;;;9.47;51.13
22257;BME280;11297;42.686;23.374;2023-03-20T05:53:37;95299.31;;;9.59;51.26
22257;BME280;11297;42.686;23.374;2023-03-20T05:56:03;95309.88;;;9.62;52.11
22257;BME280;11297;42.686;23.374;2023-03-20T05:58:28;95308.22;;;9.53;52.39
22257;BME280;11297;42.686;23.374;2023-03-20T06:00:56;95308.69;;;9.55;52.71
22257;BME280;11297;42.686;23.374;2023-03-20T06:03:21;95306.22;;;9.18;53.88
22257;BME280;11297;42.686;23.374;2023-03-20T06:05:47;95309.66;;;9.14;53.87
22257;BME280;11297;42.686;23.374;2023-03-20T06:08:12;95290.66;;;9.18;53.73
22257;BME280;11297;42.686;23.374;2023-03-20T06:10:38;95304.56;;;9.41;52.97
22257;BME280;11297;42.686;23.374;2023-03-20T06:13:03;95300.72;;;9.52;52.94
22257;BME280;11297;42.686;23.374;2023-03-20T06:15:29;95313.16;;;9.68;52.59
22257;BME280;11297;42.686;23.374;2023-03-20T06:17:55;95298.38;;;9.82;52.12
22257;BME280;11297;42.686;23.374;2023-03-20T06:20:20;95305.63;;;10.11;51.00
22257;BME280;11297;42.686;23.374;2023-03-20T06:22:46;95310.63;;;10.35;50.76
22257;BME280;11297;42.686;23.374;2023-03-20T06:25:12;95309.00;;;10.25;50.62
22257;BME280;11297;42.686;23.374;2023-03-20T06:27:37;95300.38;;;10.03;51.48
22257;BME280;11297;42.686;23.374;2023-03-20T06:30:04;95294.84;;;10.31;50.65
22257;BME280;11297;42.686;23.374;2023-03-20T06:32:30;95306.75;;;10.59;50.31
22257;BME280;11297;42.686;23.374;2023-03-20T06:34:56;95304.75;;;10.91;49.74
22257;BME280;11297;42.686;23.374;2023-03-20T06:37:21;95307.56;;;11.16;48.69
22257;BME280;11297;42.686;23.374;2023-03-20T06:39:47;95305.06;;;11.33;48.44
22257;BME280;11297;42.686;23.374;2023-03-20T06:42:12;95302.84;;;11.40;47.92
22257;BME280;11297;42.686;23.374;2023-03-20T06:44:38;95302.94;;;11.35;48.01
22257;BME280;11297;42.686;23.374;2023-03-20T06:47:04;95307.38;;;11.35;47.94
22257;BME280;11297;42.686;23.374;2023-03-20T06:49:29;95293.59;;;11.12;48.31
22257;BME280;11297;42.686;23.374;2023-03-20T06:51:55;95308.22;;;11.43;48.50
22257;BME280;11297;42.686;23.374;2023-03-20T06:54:21;95299.22;;;11.71;47.61
22257;BME280;11297;42.686;23.374;2023-03-20T06:56:46;95294.69;;;11.85;47.10
22257;BME280;11297;42.686;23.374;2023-03-20T06:59:12;95286.53;;;12.08;46.90
22257;BME280;11297;42.686;23.374;2023-03-20T07:01:38;95290.88;;;12.30;46.82
22257;BME280;11297;42.686;23.374;2023-03-20T07:04:03;95289.41;;;12.54;46.02
22257;BME280;11297;42.686;23.374;2023-03-20T07:06:29;95294.03;;;12.65;45.59
22257;BME280;11297;42.686;23.374;2023-03-20T07:08:54;95276.16;;;12.89;45.35
22257;BME280;11297;42.686;23.374;2023-03-20T07:11:20;95281.06;;;12.90;45.16
22257;BME280;11297;42.686;23.374;2023-03-20T07:13:46;95266.03;;;13.13;44.52
22257;BME280;11297;42.686;23.374;2023-03-20T07:16:12;95278.91;;;13.26;44.06
22257;BME280;11297;42.686;23.374;2023-03-20T07:18:37;95289.66;;;13.33;44.47
22257;BME280;11297;42.686;23.374;2023-03-20T07:21:04;95284.25;;;13.38;44.36
22257;BME280;11297;42.686;23.374;2023-03-20T07:23:31;95267.63;;;13.59;43.81
22257;BME280;11297;42.686;23.374;2023-03-20T07:25:58;95267.44;;;13.73;43.80
22257;BME280;11297;42.686;23.374;2023-03-20T07:28:24;95265.22;;;14.00;42.78
22257;BME280;11297;42.686;23.374;2023-03-20T07:30:49;95274.03;;;14.24;44.74
22257;BME280;11297;42.686;23.374;2023-03-20T07:33:15;95276.84;;;14.48;44.99
22257;BME280;11297;42.686;23.374;2023-03-20T07:35:41;95271.41;;;14.82;45.27
22257;BME280;11297;42.686;23.374;2023-03-20T07:38:06;95282.03;;;14.77;47.03
22257;BME280;11297;42.686;23.374;2023-03-20T07:40:32;95282.75;;;14.85;43.19
22257;BME280;11297;42.686;23.374;2023-03-20T07:42:57;95280.84;;;15.15;41.73
22257;BME280;11297;42.686;23.374;2023-03-20T07:45:23;95271.34;;;15.42;41.86
22257;BME280;11297;42.686;23.374;2023-03-20T07:47:49;95277.13;;;15.36;40.80
22257;BME280;11297;42.686;23.374;2023-03-20T07:50:15;95279.25;;;15.22;41.28
22257;BME280;11297;42.686;23.374;2023-03-20T07:52:48;95280.22;;;15.18;41.33
22257;BME280;11297;42.686;23.374;2023-03-20T07:55:14;95279.75;;;15.36;41.24
22257;BME280;11297;42.686;23.374;2023-03-20T07:57:40;95277.13;;;15.36;40.68
22257;BME280;11297;42.686;23.374;2023-03-20T08:00:08;95278.09;;;15.64;40.27
22257;BME280;11297;42.686;23.374;2023-03-20T08:02:34;95274.63;;;15.72;39.86
22257;BME280;11297;42.686;23.374;2023-03-20T08:04:59;95282.72;;;15.78;40.21
22257;BME280;11297;42.686;23.374;2023-03-20T08:07:25;95265.50;;;15.89;40.48
22257;BME280;11297;42.686;23.374;2023-03-20T08:09:50;95279.03;;;16.03;40.66
22257;BME280;11297;42.686;23.374;2023-03-20T08:12:17;95277.25;;;16.39;38.95
22257;BME280;11297;42.686;23.374;2023-03-20T08:14:42;95273.75;;;16.47;38.63
22257;BME280;11297;42.686;23.374;2023-03-20T08:17:08;95262.22;;;16.87;38.44
22257;BME280;11297;42.686;23.374;2023-03-20T08:19:33;95272.13;;;17.45;36.68
22257;BME280;11297;42.686;23.374;2023-03-20T08:22:00;95267.16;;;17.55;37.18
22257;BME280;11297;42.686;23.374;2023-03-20T08:24:26;95264.66;;;18.05;35.83
22257;BME280;11297;42.686;23.374;2023-03-20T08:26:51;95263.19;;;18.19;36.06
22257;BME280;11297;42.686;23.374;2023-03-20T08:29:17;95272.84;;;18.46;36.40
22257;BME280;11297;42.686;23.374;2023-03-20T08:31:43;95263.47;;;18.48;35.06
22257;BME280;11297;42.686;23.374;2023-03-20T08:34:09;95267.13;;;18.59;34.77
22257;BME280;11297;42.686;23.374;2023-03-20T08:36:35;95273.56;;;18.62;35.06
22257;BME280;11297;42.686;23.374;2023-03-20T08:39:00;95275.19;;;18.51;35.53
22257;BME280;11297;42.686;23.374;2023-03-20T08:41:26;95275.38;;;18.58;35.46
22257;BME280;11297;42.686;23.374;2023-03-20T08:43:51;95267.25;;;18.81;34.87
22257;BME280;11297;42.686;23.374;2023-03-20T08:46:16;95268.72;;;19.32;34.89
22257;BME280;11297;42.686;23.374;2023-03-20T08:48:42;95267.31;;;19.57;33.77
22257;BME280;11297;42.686;23.374;2023-03-20T08:51:07;95246.72;;;19.43;34.13
22257;BME280;11297;42.686;23.374;2023-03-20T08:53:34;95258.59;;;19.34;34.27
22257;BME280;11297;42.686;23.374;2023-03-20T08:56:00;95265.94;;;19.85;34.49
22257;BME280;11297;42.686;23.374;2023-03-20T08:58:26;95261.22;;;20.16;33.08
22257;BME280;11297;42.686;23.374;2023-03-20T09:00:51;95249.91;;;20.15;33.21
22257;BME280;11297;42.686;23.374;2023-03-20T09:03:19;95254.44;;;20.63;32.06
22257;BME280;11297;42.686;23.374;2023-03-20T09:05:50;95255.31;;;20.96;32.94
22257;BME280;11297;42.686;23.374;2023-03-20T09:08:17;95243.66;;;21.01;32.03
22257;BME280;11297;42.686;23.374;2023-03-20T09:10:42;95247.75;;;20.69;32.21
22257;BME280;11297;42.686;23.374;2023-03-20T09:13:08;95244.09;;;20.77;32.07
22257;BME280;11297;42.686;23.374;2023-03-20T09:15:34;95240.56;;;20.44;32.21
22257;BME280;11297;42.686;23.374;2023-03-20T09:18:00;95245.84;;;20.44;32.22
22257;BME280;11297;42.686;23.374;2023-03-20T09:20:26;95245.22;;;20.54;31.33
22257;BME280;11297;42.686;23.374;2023-03-20T09:22:51;95223.19;;;20.43;31.35
22257;BME280;11297;42.686;23.374;2023-03-20T09:25:17;95227.31;;;20.66;31.25
22257;BME280;11297;42.686;23.374;2023-03-20T09:27:42;95225.28;;;20.82;31.32
22257;BME280;11297;42.686;23.374;2023-03-20T09:30:08;95220.91;;;20.93;32.29
22257;BME280;11297;42.686;23.374;2023-03-20T09:32:34;95223.16;;;21.23;31.51
22257;BME280;11297;42.686;23.374;2023-03-20T09:35:01;95201.38;;;21.30;30.37
22257;BME280;11297;42.686;23.374;2023-03-20T09:37:27;95213.78;;;21.26;33.99
22257;BME280;11297;42.686;23.374;2023-03-20T09:39:52;95221.75;;;21.62;34.65
22257;BME280;11297;42.686;23.374;2023-03-20T09:53:17;95180.81;;;21.16;39.21
22257;BME280;11297;42.686;23.374;2023-03-20T09:55:45;95172.69;;;21.35;32.02
22257;BME280;11297;42.686;23.374;2023-03-20T09:58:14;95169.31;;;21.35;32.13
22257;BME280;11297;42.686;23.374;2023-03-20T10:00:44;95167.72;;;21.60;32.71
22257;BME280;11297;42.686;23.374;2023-03-20T10:03:20;95157.84;;;21.57;33.94
22257;BME280;11297;42.686;23.374;2023-03-20T10:05:59;95159.19;;;21.80;30.85
22257;BME280;11297;42.686;23.374;2023-03-20T10:08:32;95148.66;;;21.83;36.98
22257;BME280;11297;42.686;23.374;2023-03-20T10:19:15;95144.25;;;22.58;35.58
22257;BME280;11297;42.686;23.374;2023-03-20T10:21:47;95134.31;;;22.38;33.97
22257;BME280;11297;42.686;23.374;2023-03-20T10:24:19;95131.28;;;22.36;34.08
22257;BME280;11297;42.686;23.374;2023-03-20T10:26:50;95120.41;;;22.55;29.35
22257;BME280;11297;42.686;23.374;2023-03-20T10:32:08;95129.13;;;22.05;30.69
22257;BME280;11297;42.686;23.374;2023-03-20T10:34:54;95126.78;;;21.90;32.39
22257;BME280;11297;42.686;23.374;2023-03-20T10:37:44;95116.16;;;21.86;31.94
22257;BME280;11297;42.686;23.374;2023-03-20T10:40:23;95110.53;;;21.91;30.65
22257;BME280;11297;42.686;23.374;2023-03-20T10:42:50;95114.84;;;21.66;30.93
22257;BME280;11297;42.686;23.374;2023-03-20T10:47:45;95102.91;;;21.83;30.55
22257;BME280;11297;42.686;23.374;2023-03-20T10:50:17;95097.28;;;21.88;31.43
22257;BME280;11297;42.686;23.374;2023-03-20T10:52:46;95092.88;;;22.12;31.49
22257;BME280;11297;42.686;23.374;2023-03-20T10:55:22;95080.38;;;22.06;30.99
22257;BME280;11297;42.686;23.374;2023-03-20T10:57:53;95063.63;;;21.88;31.25
22257;BME280;11297;42.686;23.374;2023-03-20T11:00:22;95081.34;;;22.38;34.08
22257;BME280;11297;42.686;23.374;2023-03-20T11:02:51;95081.16;;;22.77;33.50
22257;BME280;11297;42.686;23.374;2023-03-20T11:05:23;95073.31;;;23.08;30.82
22257;BME280;11297;42.686;23.374;2023-03-20T11:08:08;95067.63;;;23.13;32.71
22257;BME280;11297;42.686;23.374;2023-03-20T11:10:37;95061.59;;;23.20;34.66
22257;BME280;11297;42.686;23.374;2023-03-20T11:13:14;95058.94;;;23.13;30.77
22257;BME280;11297;42.686;23.374;2023-03-20T11:15:41;95061.22;;;23.21;30.45
22257;BME280;11297;42.686;23.374;2023-03-20T11:18:10;95058.19;;;23.19;29.80
22257;BME280;11297;42.686;23.374;2023-03-20T11:23:28;95046.44;;;23.20;31.21
22257;BME280;11297;42.686;23.374;2023-03-20T11:26:06;95043.41;;;23.11;28.60
22257;BME280;11297;42.686;23.374;2023-03-20T11:28:40;95039.56;;;22.99;27.74
22257;BME280;11297;42.686;23.374;2023-03-20T11:33:45;95019.41;;;22.59;27.92
22257;BME280;11297;42.686;23.374;2023-03-20T11:36:23;95026.56;;;22.49;28.21
22257;BME280;11297;42.686;23.374;2023-03-20T11:38:50;95016.25;;;22.30;28.12
22257;BME280;11297;42.686;23.374;2023-03-20T11:41:27;95015.06;;;22.20;28.45
22257;BME280;11297;42.686;23.374;2023-03-20T11:43:53;95004.13;;;22.29;27.54
22257;BME280;11297;42.686;23.374;2023-03-20T11:46:21;94989.34;;;22.17;27.95
22257;BME280;11297;42.686;23.374;2023-03-20T11:49:01;94963.94;;;22.06;27.55
22257;BME280;11297;42.686;23.374;2023-03-20T11:51:27;94996.13;;;22.18;27.95
22257;BME280;11297;42.686;23.374;2023-03-20T11:54:04;94992.38;;;22.23;27.93
22257;BME280;11297;42.686;23.374;2023-03-20T11:56:32;94978.22;;;21.91;28.97
22257;BME280;11297;42.686;23.374;2023-03-20T11:59:14;94981.47;;;21.64;29.19
22257;BME280;11297;42.686;23.374;2023-03-20T12:01:44;94975.88;;;21.76;28.16
22257;BME280;11297;42.686;23.374;2023-03-20T12:04:26;94975.59;;;21.95;45.30
22257;BME280;11297;42.686;23.374;2023-03-20T12:06:57;94972.38;;;22.22;31.97
22257;BME280;11297;42.686;23.374;2023-03-20T12:09:36;94968.28;;;22.49;30.86
22257;BME280;11297;42.686;23.374;2023-03-20T12:12:18;94964.53;;;22.67;34.15
22257;BME280;11297;42.686;23.374;2023-03-20T12:19:57;94955.47;;;22.85;31.84
22257;BME280;11297;42.686;23.374;2023-03-20T12:22:30;94949.84;;;22.97;27.58
22257;BME280;11297;42.686;23.374;2023-03-20T12:25:17;94947.97;;;22.98;28.41
22257;BME280;11297;42.686;23.374;2023-03-20T12:27:54;94940.38;;;23.00;25.19
22257;BME280;11297;42.686;23.374;2023-03-20T12:30:31;94939.56;;;22.71;25.72
22257;BME280;11297;42.686;23.374;2023-03-20T12:33:09;94934.25;;;22.47;25.29
22257;BME280;11297;42.686;23.374;2023-03-20T12:35:43;94931.94;;;22.42;28.20
22257;BME280;11297;42.686;23.374;2023-03-20T12:38:32;94934.59;;;22.53;31.39
22257;BME280;11297;42.686;23.374;2023-03-20T12:41:18;94928.59;;;22.62;26.02
22257;BME280;11297;42.686;23.374;2023-03-20T12:52:24;94911.19;;;22.75;25.45
22257;BME280;11297;42.686;23.374;2023-03-20T13:00:20;94910.06;;;22.73;25.09
22257;BME280;11297;42.686;23.374;2023-03-20T13:03:17;94893.03;;;22.74;24.70
22257;BME280;11297;42.686;23.374;2023-03-20T13:05:51;94894.53;;;22.68;27.35
22257;BME280;11297;42.686;23.374;2023-03-20T13:08:24;94885.09;;;22.74;23.89
22257;BME280;11297;42.686;23.374;2023-03-20T13:11:18;94882.03;;;22.72;22.89
22257;BME280;11297;42.686;23.374;2023-03-20T13:14:01;94872.59;;;22.60;23.08
22257;BME280;11297;42.686;23.374;2023-03-20T13:21:57;94880.91;;;22.52;23.01
22257;BME280;11297;42.686;23.374;2023-03-20T13:24:47;94874.06;;;22.48;22.94
22257;BME280;11297;42.686;23.374;2023-03-20T13:30:35;94868.41;;;22.53;23.79
22257;BME280;11297;42.686;23.374;2023-03-20T13:33:25;94859.69;;;22.56;23.78
22257;BME280;11297;42.686;23.374;2023-03-20T13:36:06;94855.91;;;22.60;23.49
22257;BME280;11297;42.686;23.374;2023-03-20T13:38:45;94851.78;;;22.59;23.14
22257;BME280;11297;42.686;23.374;2023-03-20T13:41:12;94843.81;;;22.56;23.33
22257;BME280;11297;42.686;23.374;2023-03-20T13:44:00;94839.66;;;22.55;23.50
22257;BME280;11297;42.686;23.374;2023-03-20T13:46:49;94837.41;;;22.53;22.85
22257;BME280;11297;42.686;23.374;2023-03-20T13:49:38;94841.16;;;22.56;23.34
22257;BME280;11297;42.686;23.374;2023-03-20T13:52:17;94839.66;;;22.58;23.21
22257;BME280;11297;42.686;23.374;2023-03-20T14:00:39;94821.88;;;22.58;22.90
22257;BME280;11297;42.686;23.374;2023-03-20T14:03:30;94827.53;;;22.67;22.64
22257;BME280;11297;42.686;23.374;2023-03-20T14:05:57;94823.00;;;22.64;22.84
22257;BME280;11297;42.686;23.374;2023-03-20T14:11:14;94810.53;;;22.75;23.14
22257;BME280;11297;42.686;23.374;2023-03-20T14:13:46;94801.81;;;22.68;22.93
22257;BME280;11297;42.686;23.374;2023-03-20T14:16:14;94807.50;;;22.77;22.39
22257;BME280;11297;42.686;23.374;2023-03-20T14:18:43;94796.16;;;22.69;21.77
22257;BME280;11297;42.686;23.374;2023-03-20T14:21:14;94799.53;;;22.73;21.79
22257;BME280;11297;42.686;23.374;2023-03-20T14:23:47;94802.56;;;22.75;22.82
22257;BME280;11297;42.686;23.374;2023-03-20T14:29:01;94800.28;;;22.84;21.85
22257;BME280;11297;42.686;23.374;2023-03-20T14:31:32;94796.50;;;22.92;22.35
22257;BME280;11297;42.686;23.374;2023-03-20T14:36:43;94789.28;;;22.93;22.24
22257;BME280;11297;42.686;23.374;2023-03-20T14:39:47;94788.91;;;23.05;35.55
22257;BME280;11297;42.686;23.374;2023-03-20T14:47:56;94780.22;;;23.04;25.65
22257;BME280;11297;42.686;23.374;2023-03-20T14:56:19;94784.00;;;23.03;22.33
22257;BME280;11297;42.686;23.374;2023-03-20T15:01:25;94782.13;;;22.79;24.72